Time;durP1;ratioP1;P1;durP2;ratioP2;P2;SDS_P1;SDS_P2;PMS_P1;PMS_P2;Temp;Humidity;BMP_temperature;BMP_pressure;BME280_temperature;BME280_humidity;BME280_pressure;Samples;Min_cycle;Max_cycle;Signal;HPM_P1;HPM_P2
2023/07/27 00:02:11;;;;;;;6.82;5.07;;;;;;;;;;5045373;28;20050;-72
2023/07/27 00:04:37;;;;;;;8.23;4.88;;;;;;;;;;5048564;28;20131;-72
2023/07/27 00:07:03;;;;;;;9.65;5.35;;;;;;;;;;5042888;28;20514;-72
2023/07/27 00:09:30;;;;;;;8.10;4.80;;;;;;;;;;5045769;28;20041;-72
2023/07/27 00:11:56;;;;;;;8.75;6.15;;;;;;;;;;5042300;28;20099;-74
2023/07/27 00:14:22;;;;;;;7.53;4.80;;;;;;;;;;5048198;28;20044;-72
2023/07/27 00:16:48;;;;;;;13.23;6.43;;;;;;;;;;5042848;28;20112;-73
2023/07/27 00:19:14;;;;;;;6.88;5.00;;;;;;;;;;5030963;28;20492;-72
2023/07/27 00:21:40;;;;;;;8.45;5.85;;;;;;;;;;5030952;28;20041;-72
2023/07/27 00:24:07;;;;;;;9.32;5.88;;;;;;;;;;5051990;28;20049;-72
2023/07/27 00:26:33;;;;;;;8.23;5.85;;;;;;;;;;5043745;28;20502;-72
2023/07/27 00:28:59;;;;;;;8.60;5.38;;;;;;;;;;5050287;28;20483;-73
2023/07/27 00:31:25;;;;;;;11.65;5.57;;;;;;;;;;5036095;28;20546;-72
2023/07/27 00:33:51;;;;;;;10.15;5.65;;;;;;;;;;5053598;28;20091;-72
2023/07/27 00:36:17;;;;;;;8.00;5.53;;;;;;;;;;5053288;28;20044;-72
2023/07/27 00:38:43;;;;;;;9.60;5.60;;;;;;;;;;5035159;28;20052;-73
2023/07/27 00:41:10;;;;;;;9.13;5.57;;;;;;;;;;5039549;28;20044;-73
2023/07/27 00:43:36;;;;;;;7.72;4.82;;;;;;;;;;5056707;28;20052;-72
2023/07/27 00:46:02;;;;;;;8.05;5.80;;;;;;;;;;5044518;28;20048;-74
2023/07/27 00:48:28;;;;;;;8.23;4.82;;;;;;;;;;5050241;28;20037;-72
2023/07/27 00:50:55;;;;;;;7.45;5.28;;;;;;;;;;5049076;28;20429;-72
2023/07/27 00:53:21;;;;;;;14.57;6.95;;;;;;;;;;5049432;28;20041;-73
2023/07/27 00:55:47;;;;;;;7.95;5.70;;;;;;;;;;5049715;28;20048;-72
2023/07/27 00:58:14;;;;;;;6.68;4.68;;;;;;;;;;5040053;28;20052;-72
2023/07/27 01:00:43;;;;;;;9.45;5.72;;;;;;;;;;5045431;28;20057;-72
2023/07/27 01:03:09;;;;;;;7.90;5.47;;;;;;;;;;5049897;28;20074;-72
2023/07/27 01:05:36;;;;;;;7.53;4.50;;;;;;;;;;5051096;28;20126;-72
2023/07/27 01:08:02;;;;;;;8.10;5.07;;;;;;;;;;5050049;28;20049;-73
2023/07/27 01:10:37;;;;;;;7.13;5.35;;;;;;;;;;5047503;28;20051;-72
2023/07/27 01:13:11;;;;;;;7.00;4.50;;;;;;;;;;5040810;28;20053;-74
2023/07/27 01:15:39;;;;;;;8.20;4.80;;;;;;;;;;5055836;28;20136;-72
2023/07/27 01:18:09;;;;;;;7.18;4.57;;;;;;;;;;5051886;28;20052;-72
2023/07/27 01:20:46;;;;;;;9.82;5.80;;;;;;;;;;5050245;28;20053;-72
2023/07/27 01:23:21;;;;;;;9.25;5.10;;;;;;;;;;5045880;28;20037;-73
2023/07/27 01:25:47;;;;;;;9.15;5.25;;;;;;;;;;5055189;28;20136;-73
2023/07/27 01:28:26;;;;;;;18.45;5.55;;;;;;;;;;5056635;28;20049;-73
2023/07/27 01:31:13;;;;;;;6.95;4.45;;;;;;;;;;5048115;28;20038;-72
2023/07/27 01:33:44;;;;;;;7.05;4.65;;;;;;;;;;5036743;28;20051;-72
2023/07/27 01:36:13;;;;;;;9.73;5.47;;;;;;;;;;5031815;28;20041;-72
2023/07/27 01:38:42;;;;;;;9.85;5.85;;;;;;;;;;5046486;28;20046;-73
2023/07/27 01:41:09;;;;;;;6.97;5.38;;;;;;;;;;5040302;28;20142;-73
2023/07/27 01:43:35;;;;;;;7.72;5.55;;;;;;;;;;5029954;28;20044;-72
2023/07/27 01:46:02;;;;;;;8.27;4.93;;;;;;;;;;5035216;28;20051;-73
2023/07/27 01:48:28;;;;;;;8.60;4.93;;;;;;;;;;5044427;28;20049;-73
2023/07/27 01:50:55;;;;;;;8.73;5.25;;;;;;;;;;5041929;28;20401;-72
2023/07/27 01:53:22;;;;;;;6.45;4.88;;;;;;;;;;5046599;28;20169;-73
2023/07/27 01:55:49;;;;;;;8.70;4.95;;;;;;;;;;5037815;28;20140;-73
2023/07/27 01:58:16;;;;;;;6.65;5.22;;;;;;;;;;5042705;28;20049;-73
2023/07/27 02:00:43;;;;;;;7.82;4.65;;;;;;;;;;5042571;28;20037;-73
2023/07/27 02:03:12;;;;;;;7.30;5.05;;;;;;;;;;5039146;28;20060;-73
2023/07/27 02:05:38;;;;;;;7.68;4.95;;;;;;;;;;5048560;28;20340;-73
2023/07/27 02:08:04;;;;;;;7.30;5.25;;;;;;;;;;5024464;28;20049;-74
2023/07/27 02:10:34;;;;;;;7.20;5.20;;;;;;;;;;5042059;28;20148;-74
2023/07/27 02:13:06;;;;;;;8.02;5.60;;;;;;;;;;5032764;28;20040;-74
2023/07/27 02:15:43;;;;;;;7.50;4.75;;;;;;;;;;5041136;28;20041;-73
2023/07/27 02:18:11;;;;;;;8.88;4.60;;;;;;;;;;5045284;28;20052;-73
2023/07/27 02:20:38;;;;;;;10.05;7.85;;;;;;;;;;5043685;28;20040;-73
2023/07/27 02:23:05;;;;;;;11.13;6.30;;;;;;;;;;5046421;28;20037;-74
2023/07/27 02:25:31;;;;;;;10.48;5.65;;;;;;;;;;5041781;28;20111;-73
2023/07/27 02:27:57;;;;;;;8.00;4.55;;;;;;;;;;5037496;28;20037;-74
2023/07/27 02:30:24;;;;;;;8.55;5.50;;;;;;;;;;5044202;28;20526;-74
2023/07/27 02:32:50;;;;;;;7.70;5.53;;;;;;;;;;5059761;28;20500;-74
2023/07/27 02:35:16;;;;;;;7.93;5.18;;;;;;;;;;5043923;28;20038;-73
2023/07/27 02:37:42;;;;;;;7.32;4.65;;;;;;;;;;5032084;28;20043;-73
2023/07/27 02:40:08;;;;;;;6.85;5.32;;;;;;;;;;5041000;28;20075;-74
2023/07/27 02:42:34;;;;;;;9.45;5.00;;;;;;;;;;5045136;28;20103;-74
2023/07/27 02:45:01;;;;;;;6.93;4.68;;;;;;;;;;5024599;28;20041;-73
2023/07/27 02:47:27;;;;;;;6.82;5.57;;;;;;;;;;5045382;28;20098;-74
2023/07/27 02:49:53;;;;;;;7.55;4.63;;;;;;;;;;5035243;28;20057;-74
2023/07/27 02:52:19;;;;;;;8.15;4.55;;;;;;;;;;5036759;28;20045;-73
2023/07/27 02:54:45;;;;;;;7.70;4.82;;;;;;;;;;5045875;28;20263;-73
2023/07/27 02:57:11;;;;;;;7.00;4.57;;;;;;;;;;5043313;28;20281;-74
2023/07/27 02:59:37;;;;;;;7.47;4.00;;;;;;;;;;5035989;28;20478;-73
2023/07/27 03:02:03;;;;;;;9.05;5.28;;;;;;;;;;5048390;28;20048;-73
2023/07/27 03:04:29;;;;;;;7.20;5.20;;;;;;;;;;5044224;28;20049;-73
2023/07/27 03:06:56;;;;;;;5.88;5.03;;;;;;;;;;5034597;28;20040;-73
2023/07/27 03:09:22;;;;;;;12.50;5.47;;;;;;;;;;5049777;28;20135;-73
2023/07/27 03:11:49;;;;;;;8.35;4.85;;;;;;;;;;5044803;28;20502;-74
2023/07/27 03:14:16;;;;;;;9.50;5.75;;;;;;;;;;5037549;28;20423;-74
2023/07/27 03:16:42;;;;;;;7.30;4.80;;;;;;;;;;5050288;28;20094;-74
2023/07/27 03:19:08;;;;;;;7.03;4.70;;;;;;;;;;5047283;28;20090;-74
2023/07/27 03:21:34;;;;;;;7.15;5.22;;;;;;;;;;5044153;28;20131;-74
2023/07/27 03:24:00;;;;;;;7.18;4.82;;;;;;;;;;5045067;28;20037;-74
2023/07/27 03:26:26;;;;;;;6.10;4.63;;;;;;;;;;5048773;28;20048;-73
2023/07/27 03:28:52;;;;;;;7.63;4.78;;;;;;;;;;5041250;28;20521;-74
2023/07/27 03:31:19;;;;;;;7.05;5.00;;;;;;;;;;5044492;28;20048;-74
2023/07/27 03:33:45;;;;;;;8.57;5.90;;;;;;;;;;5050927;28;20135;-74
2023/07/27 03:36:11;;;;;;;10.88;6.20;;;;;;;;;;5030602;28;20049;-73
2023/07/27 03:38:37;;;;;;;10.63;6.30;;;;;;;;;;5041264;28;20049;-74
2023/07/27 03:41:03;;;;;;;8.98;5.50;;;;;;;;;;5059332;28;20033;-74
2023/07/27 03:43:29;;;;;;;8.55;6.22;;;;;;;;;;5037456;28;20040;-73
2023/07/27 03:45:55;;;;;;;9.32;6.00;;;;;;;;;;5044709;28;20033;-73
2023/07/27 03:48:22;;;;;;;7.43;5.25;;;;;;;;;;5023253;28;20653;-73
2023/07/27 03:50:48;;;;;;;8.20;5.55;;;;;;;;;;5045361;28;20066;-73
2023/07/27 03:53:14;;;;;;;10.27;5.25;;;;;;;;;;5036307;28;20073;-73
2023/07/27 03:55:40;;;;;;;7.68;5.20;;;;;;;;;;5041973;28;20499;-73
2023/07/27 03:58:07;;;;;;;11.10;6.25;;;;;;;;;;5036141;28;20051;-73
2023/07/27 04:00:33;;;;;;;8.55;5.43;;;;;;;;;;5048473;28;20479;-73
2023/07/27 04:02:59;;;;;;;7.35;5.72;;;;;;;;;;5027906;28;20041;-74
2023/07/27 04:05:25;;;;;;;8.68;6.28;;;;;;;;;;5046723;28;20115;-73
2023/07/27 04:07:52;;;;;;;9.77;5.88;;;;;;;;;;5040302;28;20052;-73
2023/07/27 04:10:18;;;;;;;10.18;6.55;;;;;;;;;;5044774;28;20088;-73
2023/07/27 04:12:44;;;;;;;10.75;6.85;;;;;;;;;;5046761;28;20060;-73
2023/07/27 04:15:11;;;;;;;10.32;6.25;;;;;;;;;;5031289;28;20048;-73
2023/07/27 04:17:37;;;;;;;10.27;6.10;;;;;;;;;;5042873;28;20517;-73
2023/07/27 04:20:03;;;;;;;11.32;6.60;;;;;;;;;;5035067;28;20068;-73
2023/07/27 04:22:29;;;;;;;11.35;6.63;;;;;;;;;;5045463;28;20052;-73
2023/07/27 04:24:55;;;;;;;11.90;7.32;;;;;;;;;;5047576;28;20045;-73
2023/07/27 04:27:21;;;;;;;14.07;7.38;;;;;;;;;;5044178;28;20033;-73
2023/07/27 04:29:47;;;;;;;9.30;6.53;;;;;;;;;;5055349;28;20043;-73
2023/07/27 04:32:13;;;;;;;11.68;7.25;;;;;;;;;;5047643;28;20502;-73
2023/07/27 04:34:40;;;;;;;11.77;7.22;;;;;;;;;;5055398;28;20505;-73
2023/07/27 04:37:06;;;;;;;10.05;7.50;;;;;;;;;;5047691;28;20051;-73
2023/07/27 04:39:32;;;;;;;10.70;7.03;;;;;;;;;;5055086;28;20045;-73
2023/07/27 04:41:58;;;;;;;10.77;6.63;;;;;;;;;;5045897;28;20061;-72
2023/07/27 04:44:24;;;;;;;10.88;7.00;;;;;;;;;;5035769;28;20597;-73
2023/07/27 04:46:52;;;;;;;12.13;7.45;;;;;;;;;;5035718;28;20033;-73
2023/07/27 04:49:18;;;;;;;11.32;7.45;;;;;;;;;;5038782;28;20052;-73
2023/07/27 04:51:44;;;;;;;12.55;7.15;;;;;;;;;;5037036;28;20574;-73
2023/07/27 04:54:10;;;;;;;12.30;6.53;;;;;;;;;;5033881;28;20402;-74
2023/07/27 04:56:36;;;;;;;9.52;6.68;;;;;;;;;;5026626;28;20455;-73
2023/07/27 04:59:02;;;;;;;14.00;7.85;;;;;;;;;;5046054;28;20050;-73
2023/07/27 05:01:29;;;;;;;12.00;7.38;;;;;;;;;;5044470;28;20080;-73
2023/07/27 05:03:55;;;;;;;12.32;8.30;;;;;;;;;;5042533;28;20378;-72
2023/07/27 05:06:21;;;;;;;11.68;8.02;;;;;;;;;;5049715;28;20075;-73
2023/07/27 05:08:47;;;;;;;12.07;6.28;;;;;;;;;;5050410;28;20045;-73
2023/07/27 05:11:13;;;;;;;9.40;6.53;;;;;;;;;;5044053;28;20124;-73
2023/07/27 05:13:39;;;;;;;9.57;7.22;;;;;;;;;;5029279;28;20414;-73
2023/07/27 05:16:06;;;;;;;12.40;7.85;;;;;;;;;;5049840;28;20048;-73
2023/07/27 05:18:32;;;;;;;11.07;7.50;;;;;;;;;;5042073;28;20041;-72
2023/07/27 05:20:59;;;;;;;10.85;7.38;;;;;;;;;;5022290;28;20041;-73
2023/07/27 05:23:25;;;;;;;9.65;6.78;;;;;;;;;;5047878;28;20051;-73
2023/07/27 05:25:51;;;;;;;13.88;7.53;;;;;;;;;;5047244;28;20063;-73
2023/07/27 05:28:17;;;;;;;11.65;7.15;;;;;;;;;;5037546;28;20064;-68
2023/07/27 05:30:43;;;;;;;12.40;7.75;;;;;;;;;;5040647;28;20042;-68
2023/07/27 05:33:10;;;;;;;10.35;6.57;;;;;;;;;;5051212;28;20059;-68
2023/07/27 05:35:36;;;;;;;11.32;7.35;;;;;;;;;;5051070;28;20040;-68
2023/07/27 05:38:02;;;;;;;12.13;7.15;;;;;;;;;;5046763;28;20088;-68
2023/07/27 05:40:28;;;;;;;11.13;6.45;;;;;;;;;;5042602;28;20128;-68
2023/07/27 05:42:54;;;;;;;8.27;6.38;;;;;;;;;;5042569;28;20045;-68
2023/07/27 05:45:20;;;;;;;9.40;6.22;;;;;;;;;;5031945;28;20124;-68
2023/07/27 05:47:47;;;;;;;7.72;5.80;;;;;;;;;;5048439;28;20137;-68
2023/07/27 05:50:13;;;;;;;10.90;6.38;;;;;;;;;;5043359;28;20542;-68
2023/07/27 05:52:39;;;;;;;8.63;6.35;;;;;;;;;;5042221;28;20125;-68
2023/07/27 05:55:05;;;;;;;9.60;6.22;;;;;;;;;;5036225;28;20120;-68
2023/07/27 05:57:32;;;;;;;7.95;5.57;;;;;;;;;;5034338;28;20045;-68
2023/07/27 05:59:58;;;;;;;8.75;5.57;;;;;;;;;;5043255;28;20045;-68
2023/07/27 06:02:24;;;;;;;8.52;5.55;;;;;;;;;;5052921;28;20036;-68
2023/07/27 06:04:50;;;;;;;9.05;5.88;;;;;;;;;;5027769;28;20037;-68
2023/07/27 06:07:16;;;;;;;8.85;5.95;;;;;;;;;;5045437;28;20444;-68
2023/07/27 06:09:42;;;;;;;8.15;5.47;;;;;;;;;;5042586;28;20051;-68
2023/07/27 06:12:11;;;;;;;7.25;5.13;;;;;;;;;;5053790;28;20049;-68
2023/07/27 06:14:41;;;;;;;9.25;5.40;;;;;;;;;;5043210;28;20124;-68
2023/07/27 06:17:07;;;;;;;9.38;5.65;;;;;;;;;;5041845;28;20140;-68
2023/07/27 06:19:33;;;;;;;7.80;5.78;;;;;;;;;;5042380;28;20048;-68
2023/07/27 06:22:00;;;;;;;7.53;5.55;;;;;;;;;;5044854;28;20072;-68
2023/07/27 06:24:26;;;;;;;8.40;5.03;;;;;;;;;;5044604;28;20124;-68
2023/07/27 06:26:52;;;;;;;9.23;5.25;;;;;;;;;;5046564;28;20052;-69
2023/07/27 06:29:18;;;;;;;8.32;5.03;;;;;;;;;;5038996;28;20041;-69
2023/07/27 06:31:44;;;;;;;7.43;5.07;;;;;;;;;;5037443;28;20177;-68
2023/07/27 06:34:10;;;;;;;6.80;5.38;;;;;;;;;;5040820;28;20041;-69
2023/07/27 06:36:37;;;;;;;7.47;5.28;;;;;;;;;;5049046;28;20044;-69
2023/07/27 06:39:04;;;;;;;6.25;4.50;;;;;;;;;;5048409;28;20042;-69
2023/07/27 06:41:31;;;;;;;5.35;3.85;;;;;;;;;;5051142;28;20414;-69
2023/07/27 06:43:57;;;;;;;6.68;4.72;;;;;;;;;;5035238;28;20041;-68
2023/07/27 06:46:24;;;;;;;8.25;3.95;;;;;;;;;;5039190;28;20037;-68
2023/07/27 06:48:51;;;;;;;6.22;4.32;;;;;;;;;;5041539;28;20124;-68
2023/07/27 06:51:17;;;;;;;6.47;4.60;;;;;;;;;;5033979;28;20498;-68
2023/07/27 06:53:43;;;;;;;8.07;5.40;;;;;;;;;;5042157;28;20072;-69
2023/07/27 06:56:09;;;;;;;6.65;4.75;;;;;;;;;;5035306;28;20075;-68
2023/07/27 06:58:35;;;;;;;7.80;4.32;;;;;;;;;;5042980;28;20515;-69
2023/07/27 07:01:02;;;;;;;6.30;5.07;;;;;;;;;;5036539;28;20059;-68
2023/07/27 07:03:28;;;;;;;6.70;4.55;;;;;;;;;;5045523;28;20074;-68
2023/07/27 07:05:54;;;;;;;5.50;4.45;;;;;;;;;;5043498;28;20101;-69
2023/07/27 07:08:20;;;;;;;5.40;4.10;;;;;;;;;;5048316;28;20087;-68
2023/07/27 07:10:46;;;;;;;7.00;4.50;;;;;;;;;;5043744;28;20072;-68
2023/07/27 07:13:14;;;;;;;6.43;4.70;;;;;;;;;;5041131;28;20052;-68
2023/07/27 07:15:41;;;;;;;7.22;4.20;;;;;;;;;;5037599;28;20466;-68
2023/07/27 07:18:07;;;;;;;7.13;4.40;;;;;;;;;;5044113;28;20218;-68
2023/07/27 07:20:33;;;;;;;7.28;4.10;;;;;;;;;;5047990;28;20107;-68
2023/07/27 07:22:59;;;;;;;6.55;4.82;;;;;;;;;;5042400;28;20037;-68
2023/07/27 07:25:25;;;;;;;5.65;4.05;;;;;;;;;;5041665;28;20036;-68
2023/07/27 07:27:51;;;;;;;5.82;4.18;;;;;;;;;;5040999;28;20593;-68
2023/07/27 07:30:17;;;;;;;5.10;4.07;;;;;;;;;;5041461;28;20079;-68
2023/07/27 07:32:43;;;;;;;5.22;3.85;;;;;;;;;;5051222;28;20072;-68
2023/07/27 07:35:09;;;;;;;8.93;4.70;;;;;;;;;;5035015;28;20589;-68
2023/07/27 07:37:36;;;;;;;5.65;4.07;;;;;;;;;;5042258;28;20040;-68
2023/07/27 07:40:02;;;;;;;4.75;3.83;;;;;;;;;;5043795;28;20041;-68
2023/07/27 07:42:28;;;;;;;5.00;3.42;;;;;;;;;;5043252;28;20390;-68
2023/07/27 07:44:54;;;;;;;6.32;4.07;;;;;;;;;;5023393;28;20037;-68
2023/07/27 07:47:20;;;;;;;5.40;3.67;;;;;;;;;;5023775;28;20052;-68
2023/07/27 07:49:46;;;;;;;4.30;2.90;;;20.00;99.90;;;;;;5029376;28;20048;-68
2023/07/27 07:52:13;;;;;;;4.68;3.35;;;16.40;99.90;;;;;;5048721;28;20121;-68
2023/07/27 07:54:39;;;;;;;6.32;3.70;;;16.30;99.90;;;;;;5039743;28;20032;-68
2023/07/27 07:57:04;;;;;;;4.55;2.70;;;16.30;99.90;;;;;;5046429;28;20029;-68
2023/07/27 07:59:31;;;;;;;4.68;2.78;;;16.40;99.90;;;;;;5041837;28;20055;-68
2023/07/27 08:01:56;;;;;;;4.30;3.13;;;16.30;99.90;;;;;;5046460;28;20102;-68
2023/07/27 08:04:22;;;;;;;4.00;3.13;;;16.40;99.90;;;;;;5042708;28;20127;-68
2023/07/27 08:06:48;;;;;;;4.40;2.90;;;16.40;99.90;;;;;;5044675;28;20080;-68
2023/07/27 08:09:14;;;;;;;4.25;2.95;;;;;;;;;;5043527;28;20045;-68
2023/07/27 08:11:41;;;;;;;3.60;2.95;;;;;;;;;;5045957;28;20132;-68
2023/07/27 08:14:08;;;;;;;4.22;2.92;;;;;;;;;;5041233;28;20056;-68
2023/07/27 08:16:34;;;;;;;4.45;2.58;;;;;;;;;;5046887;28;20040;-68
2023/07/27 08:19:00;;;;;;;4.25;2.60;;;;;;;;;;5044691;28;20041;-68
2023/07/27 08:21:28;;;;;;;3.97;2.83;;;;;;;;;;5053555;28;20172;-68
2023/07/27 08:23:54;;;;;;;3.42;2.03;;;;;;;;;;5047696;28;20496;-68
2023/07/27 08:26:21;;;;;;;4.30;2.42;;;;;;;;;;5045357;28;20036;-68
2023/07/27 08:28:47;;;;;;;3.85;2.40;;;;;;;;;;5023016;28;20406;-68
2023/07/27 08:31:14;;;;;;;4.13;2.45;;;;;;;;;;5043114;28;20658;-68
2023/07/27 08:33:40;;;;;;;4.07;2.95;;;;;;;;;;5042618;28;20041;-68
2023/07/27 08:36:05;;;;;;;3.60;2.28;;;16.40;99.90;;;;;;5040921;28;20087;-68
2023/07/27 08:38:31;;;;;;;3.10;2.15;;;16.50;99.90;;;;;;5046019;28;20509;-68
2023/07/27 08:40:58;;;;;;;2.38;1.65;;;16.50;99.90;;;;;;5040031;28;20041;-68
2023/07/27 08:43:25;;;;;;;2.35;1.52;;;16.60;99.90;;;;;;5037804;28;20387;-68
2023/07/27 08:45:51;;;;;;;3.60;1.60;;;16.60;99.90;;;;;;5038884;28;20073;-68
2023/07/27 08:48:18;;;;;;;2.25;1.52;;;16.60;99.90;;;;;;5044071;28;20051;-68
2023/07/27 08:50:45;;;;;;;2.42;1.65;;;16.60;99.90;;;;;;5040348;28;20087;-68
2023/07/27 08:53:11;;;;;;;2.20;1.40;;;16.70;99.90;;;;;;5038233;28;20146;-68
2023/07/27 08:55:41;;;;;;;2.00;1.40;;;16.70;99.90;;;;;;5047744;28;20624;-68
2023/07/27 08:58:07;;;;;;;1.50;1.13;;;16.70;99.90;;;;;;5042905;28;20048;-68
2023/07/27 09:00:33;;;;;;;1.83;1.40;;;16.70;99.90;;;;;;5041812;28;20061;-68
2023/07/27 09:02:59;;;;;;;1.98;1.20;;;16.70;99.90;;;;;;5031319;28;20340;-68
2023/07/27 09:05:45;;;;;;;1.50;1.00;;;16.80;99.90;;;;;;5051824;28;20062;-68
2023/07/27 09:08:14;;;;;;;1.85;1.08;;;16.70;99.90;;;;;;5044743;28;20454;-68
2023/07/27 09:10:43;;;;;;;2.88;1.65;;;16.80;99.90;;;;;;5051459;28;20329;-68
2023/07/27 09:13:09;;;;;;;1.90;1.10;;;16.80;99.90;;;;;;5041769;28;20053;-68
2023/07/27 09:15:40;;;;;;;2.28;1.42;;;16.80;99.90;;;;;;5051502;28;20037;-68
2023/07/27 09:18:10;;;;;;;1.73;1.35;;;16.80;99.90;;;;;;5043059;28;20044;-68
2023/07/27 09:20:37;;;;;;;1.90;1.20;;;16.80;99.90;;;;;;5040513;28;20370;-68
2023/07/27 09:23:02;;;;;;;2.05;1.40;;;16.80;99.90;;;;;;5043242;28;20048;-68
2023/07/27 09:25:28;;;;;;;2.30;1.70;;;16.80;99.90;;;;;;5051985;28;20052;-68
2023/07/27 09:27:55;;;;;;;1.85;1.40;;;16.80;99.90;;;;;;5046741;28;20040;-68
2023/07/27 09:30:23;;;;;;;2.55;1.67;;;16.80;99.90;;;;;;5041660;28;20112;-68
2023/07/27 09:32:50;;;;;;;2.55;1.80;;;16.90;99.90;;;;;;5047220;28;20037;-68
2023/07/27 09:35:19;;;;;;;2.00;1.58;;;16.90;99.90;;;;;;5049714;28;20079;-68
2023/07/27 09:37:50;;;;;;;2.35;1.70;;;16.90;99.90;;;;;;5037273;28;20124;-68
2023/07/27 09:40:19;;;;;;;2.15;1.20;;;16.90;99.90;;;;;;5037121;28;20063;-68
2023/07/27 09:42:45;;;;;;;2.22;1.73;;;16.90;99.90;;;;;;5045709;28;20033;-68
2023/07/27 09:45:12;;;;;;;2.67;1.33;;;17.00;99.90;;;;;;5022913;28;20423;-68
2023/07/27 09:47:38;;;;;;;2.03;1.60;;;17.00;99.90;;;;;;5048285;28;20047;-68
2023/07/27 09:50:05;;;;;;;3.42;2.17;;;17.00;99.90;;;;;;5044642;28;20390;-68
2023/07/27 09:52:31;;;;;;;1.90;1.40;;;17.00;99.90;;;;;;5045934;28;20064;-68
2023/07/27 09:55:00;;;;;;;1.85;1.42;;;17.00;99.90;;;;;;5046440;28;20611;-68
2023/07/27 09:57:26;;;;;;;2.80;1.80;;;17.00;99.90;;;;;;5044243;28;20495;-68
2023/07/27 09:59:53;;;;;;;2.33;1.80;;;17.00;99.90;;;;;;5036153;28;20087;-68
2023/07/27 10:02:20;;;;;;;2.15;1.48;;;17.10;99.90;;;;;;5039868;28;20454;-68
2023/07/27 10:04:50;;;;;;;2.92;1.77;;;17.10;99.90;;;;;;5045145;28;20052;-68
2023/07/27 10:07:20;;;;;;;2.38;1.80;;;17.10;99.90;;;;;;5041977;28;20048;-68
2023/07/27 10:09:47;;;;;;;1.67;1.42;;;17.10;99.90;;;;;;5038198;28;20073;-68
2023/07/27 10:12:30;;;;;;;2.58;1.77;;;17.10;99.90;;;;;;5055003;28;20056;-68
2023/07/27 10:15:18;;;;;;;2.75;1.73;;;17.20;99.90;;;;;;5045282;28;20383;-68
2023/07/27 10:17:55;;;;;;;2.53;1.80;;;17.10;99.90;;;;;;5034649;28;20037;-68
2023/07/27 10:20:29;;;;;;;2.97;2.30;;;17.20;99.90;;;;;;5047426;28;20106;-68
2023/07/27 10:23:12;;;;;;;4.22;2.20;;;17.20;99.90;;;;;;5033273;28;20047;-68
2023/07/27 10:25:56;;;;;;;3.70;2.05;;;17.30;99.90;;;;;;5042765;28;20577;-68
2023/07/27 10:28:41;;;;;;;2.92;2.15;;;17.30;99.90;;;;;;5040593;28;20128;-68
2023/07/27 10:31:27;;;;;;;2.38;1.73;;;17.30;99.90;;;;;;5042613;28;20041;-68
2023/07/27 10:33:59;;;;;;;3.08;1.70;;;17.30;99.90;;;;;;5041017;28;20045;-68
2023/07/27 10:36:51;;;;;;;3.95;2.67;;;17.30;99.90;;;;;;5051167;28;20108;-68
2023/07/27 10:39:22;;;;;;;2.03;1.67;;;17.40;99.90;;;;;;5042684;28;20478;-68
2023/07/27 10:42:01;;;;;;;3.22;2.47;;;17.40;99.90;;;;;;5039856;28;20052;-68
2023/07/27 10:44:28;;;;;;;5.22;2.97;;;17.40;99.90;;;;;;5041068;28;20052;-68
2023/07/27 10:46:56;;;;;;;3.00;2.47;;;17.40;99.90;;;;;;5045122;28;20174;-68
2023/07/27 10:49:22;;;;;;;3.08;2.33;;;17.40;99.90;;;;;;5046773;28;20041;-68
2023/07/27 10:51:49;;;;;;;4.00;2.78;;;17.40;99.90;;;;;;5047553;28;20182;-68
2023/07/27 10:54:15;;;;;;;2.75;2.30;;;17.40;99.90;;;;;;5046757;28;20033;-68
2023/07/27 10:56:41;;;;;;;3.33;2.60;;;17.40;99.90;;;;;;5037825;28;20457;-68
2023/07/27 10:59:12;;;;;;;4.13;2.38;;;17.40;99.90;;;;;;5043291;28;20482;-68
2023/07/27 11:01:39;;;;;;;4.22;3.38;;;17.40;99.90;;;;;;5046611;28;20115;-68
2023/07/27 11:04:05;;;;;;;3.75;3.40;;;17.50;99.90;;;;;;5044462;28;20174;-68
2023/07/27 11:06:41;;;;;;;3.15;2.50;;;17.50;99.90;;;;;;5043198;28;20502;-68
2023/07/27 11:09:15;;;;;;;3.60;2.63;;;17.50;99.90;;;;;;5047950;28;20068;-68
2023/07/27 11:11:41;;;;;;;3.20;2.20;;;17.50;99.90;;;;;;5039702;28;20106;-68
2023/07/27 11:14:07;;;;;;;2.60;2.00;;;17.60;99.90;;;;;;5037480;28;20049;-68
2023/07/27 11:16:37;;;;;;;3.58;2.58;;;17.60;99.90;;;;;;5026675;28;20554;-68
2023/07/27 11:19:07;;;;;;;2.67;2.22;;;17.60;99.90;;;;;;5041319;28;20041;-68
2023/07/27 11:21:38;;;;;;;3.00;2.33;;;17.70;99.90;;;;;;5030009;28;20033;-68
2023/07/27 11:24:06;;;;;;;3.72;2.78;;;17.70;99.90;;;;;;5037888;28;20033;-68
2023/07/27 11:26:33;;;;;;;4.05;3.33;;;17.70;99.90;;;;;;5049390;28;20058;-68
2023/07/27 11:29:00;;;;;;;3.65;3.28;;;17.70;99.90;;;;;;5033300;28;20041;-68
2023/07/27 11:31:27;;;;;;;4.18;2.72;;;17.80;99.90;;;;;;5038647;28;20354;-68
2023/07/27 11:33:57;;;;;;;4.72;2.75;;;17.80;99.90;;;;;;5041476;28;20368;-68
2023/07/27 11:36:27;;;;;;;3.03;2.55;;;;;;;;;;5044656;28;20098;-68
2023/07/27 11:38:54;;;;;;;2.97;2.60;;;;;;;;;;5033499;28;20053;-68
2023/07/27 11:41:20;;;;;;;3.55;3.03;;;;;;;;;;5039994;28;20552;-68
2023/07/27 11:43:50;;;;;;;4.63;3.33;;;;;;;;;;5041920;28;20168;-68
2023/07/27 11:46:16;;;;;;;4.63;3.03;;;;;;;;;;5049310;28;20033;-68
2023/07/27 11:48:42;;;;;;;3.65;2.85;;;;;;;;;;5047639;28;20043;-68
2023/07/27 11:51:09;;;;;;;3.65;2.45;;;17.80;99.90;;;;;;5044143;28;20045;-68
2023/07/27 11:53:35;;;;;;;3.45;2.63;;;18.10;99.90;;;;;;5038088;28;20172;-68
2023/07/27 11:56:07;;;;;;;2.00;1.40;;;18.10;99.90;;;;;;5027316;28;20131;-68
2023/07/27 11:58:33;;;;;;;2.17;1.50;;;18.10;99.90;;;;;;5044162;28;20105;-68
2023/07/27 12:00:59;;;;;;;3.30;2.00;;;18.20;99.90;;;;;;5048551;28;20144;-68
2023/07/27 12:03:25;;;;;;;2.15;1.42;;;18.20;99.90;;;;;;5048640;28;20467;-68
2023/07/27 12:05:54;;;;;;;3.13;1.10;;;18.20;99.90;;;;;;5050804;28;20505;-68
2023/07/27 12:08:21;;;;;;;1.85;1.40;;;18.30;99.90;;;;;;5030689;28;20049;-68
2023/07/27 12:10:55;;;;;;;3.92;2.20;;;18.30;99.90;;;;;;5036772;28;20048;-68
2023/07/27 12:13:24;;;;;;;2.38;1.95;;;;;;;;;;5042598;28;20128;-68
2023/07/27 12:16:01;;;;;;;1.45;1.17;;;;;;;;;;5041273;28;20133;-68
2023/07/27 12:18:27;;;;;;;2.85;1.63;;;;;;;;;;5040445;28;20036;-68
2023/07/27 12:20:54;;;;;;;2.03;1.50;;;;;;;;;;5044178;28;20052;-68
2023/07/27 12:23:24;;;;;;;2.08;1.13;;;;;;;;;;5042430;28;20082;-68
2023/07/27 12:25:50;;;;;;;1.73;1.40;;;;;;;;;;5021037;28;20049;-68
2023/07/27 12:28:17;;;;;;;2.15;1.60;;;;;;;;;;5037797;28;20574;-68
2023/07/27 12:30:43;;;;;;;2.58;2.00;;;;;;;;;;5041672;28;20553;-68
2023/07/27 12:33:09;;;;;;;2.72;1.88;;;;;;;;;;5043885;28;20128;-68
2023/07/27 12:35:35;;;;;;;1.98;1.40;;;18.30;99.90;;;;;;5042008;28;20087;-68
2023/07/27 12:38:01;;;;;;;2.25;1.50;;;18.50;99.90;;;;;;5045769;28;20080;-68
2023/07/27 12:40:27;;;;;;;1.83;1.38;;;18.50;99.90;;;;;;5039619;28;20124;-68
2023/07/27 12:42:54;;;;;;;1.40;1.25;;;18.50;99.90;;;;;;5036424;28;20074;-68
2023/07/27 12:45:19;;;;;;;2.10;1.60;;;18.60;99.90;;;;;;5031500;28;20037;-68
2023/07/27 12:47:49;;;;;;;2.05;1.55;;;18.50;99.90;;;;;;5040934;28;20428;-68
2023/07/27 12:50:16;;;;;;;2.28;1.90;;;18.60;99.90;;;;;;5047322;28;20449;-68
2023/07/27 12:52:42;;;;;;;2.28;1.10;;;18.60;99.90;;;;;;5043346;28;20044;-68
2023/07/27 12:55:09;;;;;;;1.58;0.98;;;18.60;99.90;;;;;;5034255;28;20045;-68
2023/07/27 12:57:36;;;;;;;1.38;1.00;;;18.60;99.90;;;;;;5034667;28;20498;-68
2023/07/27 13:00:05;;;;;;;2.83;1.33;;;18.70;99.90;;;;;;5030585;28;20048;-68
2023/07/27 13:02:31;;;;;;;1.33;0.90;;;18.70;99.90;;;;;;5039419;28;20073;-68
2023/07/27 13:04:57;;;;;;;1.20;0.80;;;18.70;99.90;;;;;;5037458;28;20514;-68
2023/07/27 13:07:23;;;;;;;2.25;0.82;;;18.70;99.90;;;;;;5002881;28;20124;-68
2023/07/27 13:09:49;;;;;;;0.80;0.70;;;18.80;99.90;;;;;;4940814;28;20044;-68
2023/07/27 13:12:15;;;;;;;1.45;0.77;;;18.80;99.90;;;;;;5016466;28;20057;-68
2023/07/27 13:14:41;;;;;;;1.15;0.60;;;18.80;99.90;;;;;;5002615;28;20056;-68
2023/07/27 13:17:06;;;;;;;1.02;0.45;;;18.90;99.90;;;;;;5022721;28;20317;-68
2023/07/27 13:19:32;;;;;;;1.00;0.77;;;18.90;99.90;;;;;;5033834;28;20041;-68
2023/07/27 13:21:58;;;;;;;1.67;0.80;;;18.90;99.90;;;;;;5038886;28;20049;-68
2023/07/27 13:24:24;;;;;;;0.75;0.47;;;18.90;99.90;;;;;;5049628;28;20040;-68
2023/07/27 13:26:50;;;;;;;0.65;0.50;;;18.90;99.90;;;;;;5044247;28;20112;-67
2023/07/27 13:29:16;;;;;;;0.98;0.70;;;18.90;99.90;;;;;;5040616;28;20128;-68
2023/07/27 13:31:42;;;;;;;0.30;0.30;;;19.00;99.90;;;;;;5026418;28;20091;-68
2023/07/27 13:34:08;;;;;;;0.63;0.30;;;19.00;99.90;;;;;;5037033;28;20057;-68
2023/07/27 13:36:34;;;;;;;0.40;0.40;;;19.00;99.90;;;;;;5048228;28;20058;-68
2023/07/27 13:38:59;;;;;;;0.82;0.60;;;19.00;99.90;;;;;;5038968;28;20033;-68
2023/07/27 13:41:25;;;;;;;0.60;0.40;;;19.10;99.90;;;;;;5029409;28;20203;-68
2023/07/27 13:43:53;;;;;;;0.45;0.40;;;19.10;99.90;;;;;;5026851;28;20041;-68
2023/07/27 13:46:19;;;;;;;1.42;0.50;;;19.10;99.90;;;;;;5014449;28;20494;-68
2023/07/27 13:48:45;;;;;;;0.35;0.35;;;19.10;99.90;;;;;;5039757;28;20200;-68
2023/07/27 13:51:11;;;;;;;1.85;0.47;;;19.20;99.90;;;;;;5040418;28;20060;-68
2023/07/27 13:53:37;;;;;;;0.40;0.32;;;19.20;99.90;;;;;;5042987;28;20513;-68
2023/07/27 13:56:03;;;;;;;0.63;0.40;;;;;;;;;;5045994;28;20033;-68
2023/07/27 13:58:29;;;;;;;0.98;0.47;;;;;;;;;;5024388;28;20134;-68